Alcalde, New Mexico
Current Conditions -  °F | °C
As of 1:55 AM on Thursday 23 Oct 2014 (Local Time) from KLAM Reporting Station
Clear Clear  
Wind Chill: 51°   Ceiling: Unl
Heat Index: 51°   Visibility: 10mi
Dew Point: 34°   Wind: 0mph
Humidity: 51%   Direction: NA
Pressure: 30.29"   Gusts: NA
Location:  36.09°N, 106.06°W
Report Text: KLAM 230755Z AUTO 00000KT 10SM CLR 11/01 A3029 RMK AO2 T01070010
Loading
Personal Weather Stations






























Interactive Weather Map
Tropical Storm Tracking
New forecast layout! Learn more

10-Day Weather Forecast

Advertisements
Track Severe Weather on mobile